Thunder radar more information blitzortung!


Radar de pluja more information rain snow radar


Visita la nostra xarxa de llocs de meteo:

Template documentation
and downloads

And another site



Wind From: 11-12-2017 11:00 Until: 14:59 warning for: Wind Level: Yellow info button

Pagina Historial Weather Underground text

Diari Resum Novembre 13, 2017 Unitats:  Tant    Imperial   Mètric
« Previous Dia
SegĂźent Dia »
Diari Setmana Mensual Anual Personalitzada
  Maxima: Minima: Media:
Temperatura: 59.9 °F /  15.5 °C 42.6 °F /  5.9 °C 52.7 °F /  11.5 °C
Punt de rosada: 43.9 °F /  6.6 °C 11.7 °F /  -11.3 °C 22.3 °F /  -5.4 °C
Humitat: 75 % 22 % 32 %
Wind Speed: 12.7 mph /  20.4 km/h - 4.3 mph /  6.9 km/h
RĂ fegues de vent: 12.7 mph /  20.4 km/h - -
Vent:- - SSW
Pression baro: 30 in /  1015.8 hPa 29.8 in /  1010.0 hPa -
Precipitacions: 0 in /  0.0 mm    
Historical Graphs
 
 
Dades de taula per Novembre 13, 2017
Temps Temperatura Punt de rosada Pression baro Vent Wind Speed RĂ fegues de vent Humitat Rainfall Rate (Hourly)
00:01 55.9 °F /  13.3 °C 43.9 °F /  6.6 °C 29.8 in /  1010.0 hPa West 6.9 mph /  11.1 km/h 6.9 mph /  11.1 km/h 64 % 0 in /  0.0 mm
01:10 45.3 °F /  7.4 °C 37.6 °F /  3.1 °C 29.9 in /  1011.7 hPa Calm   2 mph /  3.2 km/h 74 % 0 in /  0.0 mm
01:20 45.3 °F /  7.4 °C 37.9 °F /  3.3 °C 29.9 in /  1011.7 hPa Calm   2 mph /  3.2 km/h 75 % 0 in /  0.0 mm
01:30 45 °F /  7.2 °C 37.6 °F /  3.1 °C 29.9 in /  1012.8 hPa North 1 mph /  1.6 km/h 2 mph /  3.2 km/h 75 % 0 in /  0.0 mm
01:40 44.4 °F /  6.9 °C 36.7 °F /  2.6 °C 29.9 in /  1013.8 hPa NNE 1 mph /  1.6 km/h 3 mph /  4.8 km/h 74 % 0 in /  0.0 mm
01:50 44.2 °F /  6.8 °C 36.5 °F /  2.5 °C 29.9 in /  1013.8 hPa NE 1 mph /  1.6 km/h 3 mph /  4.8 km/h 74 % 0 in /  0.0 mm
02:00 43.9 °F /  6.6 °C 35.4 °F /  1.9 °C 29.9 in /  1013.8 hPa NW 3 mph /  4.8 km/h 4 mph /  6.4 km/h 72 % 0 in /  0.0 mm
02:10 45.1 °F /  7.3 °C 36.7 °F /  2.6 °C 29.9 in /  1013.8 hPa WNW 1 mph /  1.6 km/h 2 mph /  3.2 km/h 72 % 0 in /  0.0 mm
02:20 46.2 °F /  7.9 °C 37 °F /  2.8 °C 29.9 in /  1013.8 hPa West 1 mph /  1.6 km/h 3 mph /  4.8 km/h 70 % 0 in /  0.0 mm
02:30 46.2 °F /  7.9 °C 37 °F /  2.8 °C 29.9 in /  1013.8 hPa SSW 2 mph /  3.2 km/h 3 mph /  4.8 km/h 70 % 0 in /  0.0 mm
02:40 46.8 °F /  8.2 °C 37 °F /  2.8 °C 29.9 in /  1013.8 hPa WSW 2 mph /  3.2 km/h 3 mph /  4.8 km/h 69 % 0 in /  0.0 mm
02:50 47.5 °F /  8.6 °C 37.4 °F /  3.0 °C 29.9 in /  1013.8 hPa WSW 2 mph /  3.2 km/h 4 mph /  6.4 km/h 68 % 0 in /  0.0 mm
03:00 49.3 °F /  9.6 °C 38.8 °F /  3.8 °C 29.9 in /  1013.8 hPa WSW 2 mph /  3.2 km/h 4 mph /  6.4 km/h 67 % 0 in /  0.0 mm
03:10 50.5 °F /  10.3 °C 39.2 °F /  4.0 °C 30 in /  1014.8 hPa East 2 mph /  3.2 km/h 3 mph /  4.8 km/h 65 % 0 in /  0.0 mm
03:20 51.4 °F /  10.8 °C 39.4 °F /  4.1 °C 30 in /  1014.8 hPa East 2 mph /  3.2 km/h 4 mph /  6.4 km/h 63 % 0 in /  0.0 mm
03:30 52.2 °F /  11.2 °C 39.9 °F /  4.4 °C 30 in /  1014.8 hPa ESE 1 mph /  1.6 km/h 3 mph /  4.8 km/h 63 % 0 in /  0.0 mm
03:40 52.2 °F /  11.2 °C 39.6 °F /  4.2 °C 30 in /  1015.8 hPa ESE 2 mph /  3.2 km/h 3 mph /  4.8 km/h 62 % 0 in /  0.0 mm
03:50 53.6 °F /  12.0 °C 40.5 °F /  4.7 °C 30 in /  1015.8 hPa East 1 mph /  1.6 km/h 2 mph /  3.2 km/h 61 % 0 in /  0.0 mm
04:00 53.6 °F /  12.0 °C 38.3 °F /  3.5 °C 30 in /  1015.8 hPa ENE 3 mph /  4.8 km/h 4 mph /  6.4 km/h 56 % 0 in /  0.0 mm
04:10 54.3 °F /  12.4 °C 38.5 °F /  3.6 °C 30 in /  1014.8 hPa NE 2 mph /  3.2 km/h 2 mph /  3.2 km/h 55 % 0 in /  0.0 mm
04:20 55 °F /  12.8 °C 38.1 °F /  3.4 °C 30 in /  1014.8 hPa North 1 mph /  1.6 km/h 2 mph /  3.2 km/h 53 % 0 in /  0.0 mm
10:21 55.6 °F /  13.1 °C 39.2 °F /  4.0 °C 30 in /  1014.8 hPa WNW 3.5 mph /  5.6 km/h 3.5 mph /  5.6 km/h 54 % 0 in /  0.0 mm
10:22 55.6 °F /  13.1 °C 39.2 °F /  4.0 °C 30 in /  1014.8 hPa West 2.3 mph /  3.7 km/h 2.3 mph /  3.7 km/h 54 % 0 in /  0.0 mm
10:27 56.1 °F /  13.4 °C 39.2 °F /  4.0 °C 30 in /  1014.8 hPa ENE 2.3 mph /  3.7 km/h 2.3 mph /  3.7 km/h 53 % 0 in /  0.0 mm
10:32 56.3 °F /  13.5 °C 38.8 °F /  3.8 °C 30 in /  1014.8 hPa West 2.4 mph /  3.9 km/h 2.4 mph /  3.9 km/h 52 % 0 in /  0.0 mm
10:37 56.5 °F /  13.6 °C 38.7 °F /  3.7 °C 30 in /  1014.8 hPa NNE 1.4 mph /  2.3 km/h 1.4 mph /  2.3 km/h 51 % 0 in /  0.0 mm
10:42 57 °F /  13.9 °C 39 °F /  3.9 °C 30 in /  1014.8 hPa ENE 1.6 mph /  2.6 km/h 1.6 mph /  2.6 km/h 51 % 0 in /  0.0 mm
10:47 56.8 °F /  13.8 °C 37.2 °F /  2.9 °C 30 in /  1014.8 hPa ENE 5.8 mph /  9.3 km/h 5.8 mph /  9.3 km/h 48 % 0 in /  0.0 mm
10:52 56.5 °F /  13.6 °C 37 °F /  2.8 °C 30 in /  1015.8 hPa ENE 5.8 mph /  9.3 km/h 5.8 mph /  9.3 km/h 48 % 0 in /  0.0 mm
10:57 56.1 °F /  13.4 °C 36.1 °F /  2.3 °C 30 in /  1015.8 hPa NNE 4.6 mph /  7.4 km/h 4.6 mph /  7.4 km/h 47 % 0 in /  0.0 mm
11:02 56.3 °F /  13.5 °C 36.3 °F /  2.4 °C 30 in /  1015.8 hPa NE 5.9 mph /  9.5 km/h 5.9 mph /  9.5 km/h 47 % 0 in /  0.0 mm
11:07 56.7 °F /  13.7 °C 36.7 °F /  2.6 °C 30 in /  1015.8 hPa SW 2.3 mph /  3.7 km/h 2.3 mph /  3.7 km/h 47 % 0 in /  0.0 mm
11:12 56.7 °F /  13.7 °C 35.4 °F /  1.9 °C 30 in /  1015.8 hPa West 4.6 mph /  7.4 km/h 4.6 mph /  7.4 km/h 45 % 0 in /  0.0 mm
11:17 57.2 °F /  14.0 °C 36 °F /  2.2 °C 30 in /  1015.8 hPa WNW 4.6 mph /  7.4 km/h 4.6 mph /  7.4 km/h 45 % 0 in /  0.0 mm
11:22 57.2 °F /  14.0 °C 34.3 °F /  1.3 °C 30 in /  1015.8 hPa NE 4.6 mph /  7.4 km/h 4.6 mph /  7.4 km/h 42 % 0 in /  0.0 mm
11:27 57.6 °F /  14.2 °C 34 °F /  1.1 °C 30 in /  1015.8 hPa NE 5.4 mph /  8.7 km/h 5.4 mph /  8.7 km/h 41 % 0 in /  0.0 mm
11:32 57.4 °F /  14.1 °C 34 °F /  1.1 °C 30 in /  1015.8 hPa NE 5.9 mph /  9.5 km/h 5.9 mph /  9.5 km/h 41 % 0 in /  0.0 mm
11:37 57.6 °F /  14.2 °C 33.4 °F /  0.8 °C 30 in /  1015.8 hPa ENE 3.5 mph /  5.6 km/h 3.5 mph /  5.6 km/h 40 % 0 in /  0.0 mm
11:42 57.7 °F /  14.3 °C 34.2 °F /  1.2 °C 30 in /  1015.8 hPa NNW 4.6 mph /  7.4 km/h 4.6 mph /  7.4 km/h 41 % 0 in /  0.0 mm
11:47 57.6 °F /  14.2 °C 31.5 °F /  -0.3 °C 30 in /  1015.8 hPa North 5.8 mph /  9.3 km/h 5.8 mph /  9.3 km/h 37 % 0 in /  0.0 mm
11:52 57.9 °F /  14.4 °C 31.8 °F /  -0.1 °C 30 in /  1015.8 hPa NNE 4.6 mph /  7.4 km/h 4.6 mph /  7.4 km/h 37 % 0 in /  0.0 mm
11:57 58.1 °F /  14.5 °C 31.3 °F /  -0.4 °C 30 in /  1015.8 hPa WNW 3.5 mph /  5.6 km/h 3.5 mph /  5.6 km/h 36 % 0 in /  0.0 mm
12:02 58.8 °F /  14.9 °C 31.8 °F /  -0.1 °C 30 in /  1015.8 hPa NNW 3.5 mph /  5.6 km/h 3.5 mph /  5.6 km/h 36 % 0 in /  0.0 mm
12:07 59.4 °F /  15.2 °C 32.4 °F /  0.2 °C 30 in /  1015.8 hPa NNE 3.8 mph /  6.1 km/h 3.8 mph /  6.1 km/h 36 % 0 in /  0.0 mm
12:12 59.2 °F /  15.1 °C 32.2 °F /  0.1 °C 30 in /  1015.8 hPa NNE 3.5 mph /  5.6 km/h 3.5 mph /  5.6 km/h 36 % 0 in /  0.0 mm
12:17 59 °F /  15.0 °C 30.6 °F /  -0.8 °C 30 in /  1015.8 hPa NNW 5.8 mph /  9.3 km/h 5.8 mph /  9.3 km/h 34 % 0 in /  0.0 mm
12:22 58.6 °F /  14.8 °C 30.4 °F /  -0.9 °C 30 in /  1014.8 hPa NE 5.8 mph /  9.3 km/h 5.8 mph /  9.3 km/h 34 % 0 in /  0.0 mm
12:27 58.6 °F /  14.8 °C 30.4 °F /  -0.9 °C 30 in /  1014.8 hPa North 6.9 mph /  11.1 km/h 6.9 mph /  11.1 km/h 34 % 0 in /  0.0 mm
12:32 58.8 °F /  14.9 °C 29.7 °F /  -1.3 °C 30 in /  1014.8 hPa NW 3.5 mph /  5.6 km/h 3.5 mph /  5.6 km/h 33 % 0 in /  0.0 mm
12:37 59 °F /  15.0 °C 29.8 °F /  -1.2 °C 30 in /  1014.8 hPa NNE 6.4 mph /  10.3 km/h 6.4 mph /  10.3 km/h 33 % 0 in /  0.0 mm
12:42 58.8 °F /  14.9 °C 29.7 °F /  -1.3 °C 30 in /  1014.8 hPa North 5.8 mph /  9.3 km/h 5.8 mph /  9.3 km/h 33 % 0 in /  0.0 mm
12:48 59 °F /  15.0 °C 29.8 °F /  -1.2 °C 30 in /  1014.8 hPa NNE 4.7 mph /  7.6 km/h 4.7 mph /  7.6 km/h 33 % 0 in /  0.0 mm
12:53 58.8 °F /  14.9 °C 28.9 °F /  -1.7 °C 30 in /  1014.8 hPa North 8.1 mph /  13.0 km/h 8.1 mph /  13.0 km/h 32 % 0 in /  0.0 mm
12:58 59 °F /  15.0 °C 29.1 °F /  -1.6 °C 30 in /  1014.8 hPa NE 4.6 mph /  7.4 km/h 4.6 mph /  7.4 km/h 32 % 0 in /  0.0 mm
13:03 59 °F /  15.0 °C 29.1 °F /  -1.6 °C 30 in /  1014.8 hPa ENE 5.8 mph /  9.3 km/h 5.8 mph /  9.3 km/h 32 % 0 in /  0.0 mm
13:08 59 °F /  15.0 °C 29.1 °F /  -1.6 °C 30 in /  1014.8 hPa ENE 6.9 mph /  11.1 km/h 6.9 mph /  11.1 km/h 32 % 0 in /  0.0 mm
13:13 59 °F /  15.0 °C 28.4 °F /  -2.0 °C 30 in /  1014.8 hPa NNE 8.1 mph /  13.0 km/h 8.1 mph /  13.0 km/h 31 % 0 in /  0.0 mm
13:18 59 °F /  15.0 °C 28.4 °F /  -2.0 °C 30 in /  1014.8 hPa North 9.2 mph /  14.8 km/h 9.2 mph /  14.8 km/h 31 % 0 in /  0.0 mm
13:23 59 °F /  15.0 °C 28.4 °F /  -2.0 °C 30 in /  1014.8 hPa NNE 5.8 mph /  9.3 km/h 5.8 mph /  9.3 km/h 31 % 0 in /  0.0 mm
13:28 59 °F /  15.0 °C 28.4 °F /  -2.0 °C 30 in /  1014.8 hPa NE 8.5 mph /  13.7 km/h 8.5 mph /  13.7 km/h 31 % 0 in /  0.0 mm
13:33 59 °F /  15.0 °C 27.7 °F /  -2.4 °C 30 in /  1014.8 hPa ENE 6.9 mph /  11.1 km/h 6.9 mph /  11.1 km/h 30 % 0 in /  0.0 mm
13:38 59.2 °F /  15.1 °C 27.7 °F /  -2.4 °C 30 in /  1014.8 hPa WNW 5.9 mph /  9.5 km/h 5.9 mph /  9.5 km/h 30 % 0 in /  0.0 mm
13:43 59 °F /  15.0 °C 27.7 °F /  -2.4 °C 30 in /  1014.8 hPa NNW 4.6 mph /  7.4 km/h 4.6 mph /  7.4 km/h 30 % 0 in /  0.0 mm
13:48 59 °F /  15.0 °C 27.7 °F /  -2.4 °C 30 in /  1014.8 hPa NNW 5.8 mph /  9.3 km/h 5.8 mph /  9.3 km/h 30 % 0 in /  0.0 mm
13:53 59 °F /  15.0 °C 27.7 °F /  -2.4 °C 30 in /  1014.8 hPa NE 2.9 mph /  4.7 km/h 2.9 mph /  4.7 km/h 30 % 0 in /  0.0 mm
13:58 59.2 °F /  15.1 °C 27.7 °F /  -2.4 °C 30 in /  1014.8 hPa ENE 4.9 mph /  7.9 km/h 4.9 mph /  7.9 km/h 30 % 0 in /  0.0 mm
14:03 59 °F /  15.0 °C 27.7 °F /  -2.4 °C 30 in /  1014.8 hPa North 3.8 mph /  6.1 km/h 3.8 mph /  6.1 km/h 30 % 0 in /  0.0 mm
14:08 59 °F /  15.0 °C 27.7 °F /  -2.4 °C 30 in /  1014.8 hPa ENE 4.6 mph /  7.4 km/h 4.6 mph /  7.4 km/h 30 % 0 in /  0.0 mm
14:13 58.8 °F /  14.9 °C 25.7 °F /  -3.5 °C 30 in /  1014.8 hPa NNW 6.4 mph /  10.3 km/h 6.4 mph /  10.3 km/h 28 % 0 in /  0.0 mm
14:18 59.2 °F /  15.1 °C 27.7 °F /  -2.4 °C 30 in /  1014.8 hPa SW 2.9 mph /  4.7 km/h 2.9 mph /  4.7 km/h 30 % 0 in /  0.0 mm
14:23 59.4 °F /  15.2 °C 27.1 °F /  -2.7 °C 30 in /  1014.8 hPa SW 6.9 mph /  11.1 km/h 6.9 mph /  11.1 km/h 29 % 0 in /  0.0 mm
14:28 59.7 °F /  15.4 °C 27.3 °F /  -2.6 °C 30 in /  1014.8 hPa NW 3.8 mph /  6.1 km/h 3.8 mph /  6.1 km/h 29 % 0 in /  0.0 mm
14:33 59.5 °F /  15.3 °C 27.1 °F /  -2.7 °C 30 in /  1014.8 hPa SSE 4.6 mph /  7.4 km/h 4.6 mph /  7.4 km/h 29 % 0 in /  0.0 mm
14:38 59.4 °F /  15.2 °C 26.2 °F /  -3.2 °C 30 in /  1014.8 hPa North 2 mph /  3.2 km/h 2 mph /  3.2 km/h 28 % 0 in /  0.0 mm
14:43 59.7 °F /  15.4 °C 27.3 °F /  -2.6 °C 30 in /  1014.8 hPa NNW 4 mph /  6.4 km/h 4 mph /  6.4 km/h 29 % 0 in /  0.0 mm
14:48 59.9 °F /  15.5 °C 27.5 °F /  -2.5 °C 30 in /  1014.8 hPa North 8.1 mph /  13.0 km/h 8.1 mph /  13.0 km/h 29 % 0 in /  0.0 mm
14:53 59.7 °F /  15.4 °C 26.4 °F /  -3.1 °C 30 in /  1014.8 hPa NNE 3.5 mph /  5.6 km/h 3.5 mph /  5.6 km/h 28 % 0 in /  0.0 mm
14:58 59.5 °F /  15.3 °C 26.4 °F /  -3.1 °C 30 in /  1014.8 hPa NE 4.6 mph /  7.4 km/h 4.6 mph /  7.4 km/h 28 % 0 in /  0.0 mm
15:03 59.2 °F /  15.1 °C 25.2 °F /  -3.8 °C 30 in /  1014.8 hPa NW 10.4 mph /  16.7 km/h 10.4 mph /  16.7 km/h 27 % 0 in /  0.0 mm
15:08 59 °F /  15.0 °C 25 °F /  -3.9 °C 30 in /  1014.8 hPa ENE 4.6 mph /  7.4 km/h 4.6 mph /  7.4 km/h 27 % 0 in /  0.0 mm
15:13 59 °F /  15.0 °C 25.9 °F /  -3.4 °C 30 in /  1014.8 hPa SW 8.1 mph /  13.0 km/h 8.1 mph /  13.0 km/h 28 % 0 in /  0.0 mm
15:18 59.4 °F /  15.2 °C 25.3 °F /  -3.7 °C 30 in /  1014.8 hPa NNW 6.2 mph /  10.0 km/h 6.2 mph /  10.0 km/h 27 % 0 in /  0.0 mm
15:23 59.2 °F /  15.1 °C 25.2 °F /  -3.8 °C 30 in /  1014.8 hPa ESE 2.3 mph /  3.7 km/h 2.3 mph /  3.7 km/h 27 % 0 in /  0.0 mm
15:28 59 °F /  15.0 °C 25 °F /  -3.9 °C 30 in /  1014.8 hPa North 5.8 mph /  9.3 km/h 5.8 mph /  9.3 km/h 27 % 0 in /  0.0 mm
15:33 59 °F /  15.0 °C 25 °F /  -3.9 °C 30 in /  1014.8 hPa NW 6.2 mph /  10.0 km/h 6.2 mph /  10.0 km/h 27 % 0 in /  0.0 mm
15:38 58.6 °F /  14.8 °C 24.6 °F /  -4.1 °C 30 in /  1014.8 hPa WNW 6.9 mph /  11.1 km/h 6.9 mph /  11.1 km/h 27 % 0 in /  0.0 mm
15:43 58.8 °F /  14.9 °C 25 °F /  -3.9 °C 30 in /  1014.8 hPa NE 3.6 mph /  5.8 km/h 3.6 mph /  5.8 km/h 27 % 0 in /  0.0 mm
15:48 58.8 °F /  14.9 °C 25 °F /  -3.9 °C 30 in /  1014.8 hPa WNW 5.8 mph /  9.3 km/h 5.8 mph /  9.3 km/h 27 % 0 in /  0.0 mm
15:53 59 °F /  15.0 °C 25 °F /  -3.9 °C 30 in /  1014.8 hPa NNW 3.5 mph /  5.6 km/h 3.5 mph /  5.6 km/h 27 % 0 in /  0.0 mm
15:58 59 °F /  15.0 °C 25 °F /  -3.9 °C 30 in /  1014.8 hPa WSW 3.6 mph /  5.8 km/h 3.6 mph /  5.8 km/h 27 % 0 in /  0.0 mm
16:03 59 °F /  15.0 °C 24.1 °F /  -4.4 °C 30 in /  1014.8 hPa WNW 4.6 mph /  7.4 km/h 4.6 mph /  7.4 km/h 26 % 0 in /  0.0 mm
16:08 58.8 °F /  14.9 °C 24.1 °F /  -4.4 °C 30 in /  1014.8 hPa WSW 8.1 mph /  13.0 km/h 8.1 mph /  13.0 km/h 26 % 0 in /  0.0 mm
16:13 58.6 °F /  14.8 °C 23.7 °F /  -4.6 °C 30 in /  1014.8 hPa NNW 4.6 mph /  7.4 km/h 4.6 mph /  7.4 km/h 26 % 0 in /  0.0 mm
16:18 58.5 °F /  14.7 °C 23.7 °F /  -4.6 °C 30 in /  1014.8 hPa WSW 5.8 mph /  9.3 km/h 5.8 mph /  9.3 km/h 26 % 0 in /  0.0 mm
16:23 58.3 °F /  14.6 °C 22.6 °F /  -5.2 °C 30 in /  1014.8 hPa NNW 5.8 mph /  9.3 km/h 5.8 mph /  9.3 km/h 25 % 0 in /  0.0 mm
16:28 58.1 °F /  14.5 °C 22.5 °F /  -5.3 °C 30 in /  1014.8 hPa WNW 3.5 mph /  5.6 km/h 3.5 mph /  5.6 km/h 25 % 0 in /  0.0 mm
16:33 57.9 °F /  14.4 °C 22.3 °F /  -5.4 °C 30 in /  1014.8 hPa South 4.6 mph /  7.4 km/h 4.6 mph /  7.4 km/h 25 % 0 in /  0.0 mm
16:38 58.1 °F /  14.5 °C 23.4 °F /  -4.8 °C 30 in /  1014.8 hPa West 4.6 mph /  7.4 km/h 4.6 mph /  7.4 km/h 26 % 0 in /  0.0 mm
16:43 57.9 °F /  14.4 °C 22.3 °F /  -5.4 °C 30 in /  1014.8 hPa WSW 2.6 mph /  4.2 km/h 2.6 mph /  4.2 km/h 25 % 0 in /  0.0 mm
16:48 57.7 °F /  14.3 °C 22.1 °F /  -5.5 °C 30 in /  1014.8 hPa West 4.6 mph /  7.4 km/h 4.6 mph /  7.4 km/h 25 % 0 in /  0.0 mm
16:53 57.4 °F /  14.1 °C 21.7 °F /  -5.7 °C 30 in /  1015.8 hPa SSW 5.8 mph /  9.3 km/h 5.8 mph /  9.3 km/h 25 % 0 in /  0.0 mm
16:58 57.2 °F /  14.0 °C 21.6 °F /  -5.8 °C 30 in /  1015.8 hPa WSW 5.8 mph /  9.3 km/h 5.8 mph /  9.3 km/h 25 % 0 in /  0.0 mm
17:03 57 °F /  13.9 °C 21.6 °F /  -5.8 °C 30 in /  1015.8 hPa South 7.1 mph /  11.4 km/h 7.1 mph /  11.4 km/h 25 % 0 in /  0.0 mm
17:08 56.5 °F /  13.6 °C 20.1 °F /  -6.6 °C 30 in /  1015.8 hPa WSW 12.7 mph /  20.4 km/h 12.7 mph /  20.4 km/h 24 % 0 in /  0.0 mm
17:13 55.9 °F /  13.3 °C 19.6 °F /  -6.9 °C 30 in /  1015.8 hPa WSW 5.8 mph /  9.3 km/h 5.8 mph /  9.3 km/h 24 % 0 in /  0.0 mm
17:18 55.6 °F /  13.1 °C 18.3 °F /  -7.6 °C 30 in /  1015.8 hPa WSW 6.9 mph /  11.1 km/h 6.9 mph /  11.1 km/h 23 % 0 in /  0.0 mm
17:23 55.2 °F /  12.9 °C 18 °F /  -7.8 °C 30 in /  1015.8 hPa WNW 5.8 mph /  9.3 km/h 5.8 mph /  9.3 km/h 23 % 0 in /  0.0 mm
17:28 54.9 °F /  12.7 °C 17.8 °F /  -7.9 °C 30 in /  1015.8 hPa NW 7.6 mph /  12.2 km/h 7.6 mph /  12.2 km/h 23 % 0 in /  0.0 mm
17:33 54.5 °F /  12.5 °C 17.4 °F /  -8.1 °C 30 in /  1015.8 hPa WNW 5.4 mph /  8.7 km/h 5.4 mph /  8.7 km/h 23 % 0 in /  0.0 mm
17:38 54.3 °F /  12.4 °C 17.2 °F /  -8.2 °C 30 in /  1015.8 hPa WNW 8.1 mph /  13.0 km/h 8.1 mph /  13.0 km/h 23 % 0 in /  0.0 mm
17:43 54 °F /  12.2 °C 16.9 °F /  -8.4 °C 30 in /  1015.8 hPa WNW 5.9 mph /  9.5 km/h 5.9 mph /  9.5 km/h 23 % 0 in /  0.0 mm
17:48 53.8 °F /  12.1 °C 16.9 °F /  -8.4 °C 30 in /  1015.8 hPa WSW 3.5 mph /  5.6 km/h 3.5 mph /  5.6 km/h 23 % 0 in /  0.0 mm
17:53 53.6 °F /  12.0 °C 16.5 °F /  -8.6 °C 30 in /  1015.8 hPa West 6.9 mph /  11.1 km/h 6.9 mph /  11.1 km/h 23 % 0 in /  0.0 mm
17:58 53.4 °F /  11.9 °C 15.4 °F /  -9.2 °C 30 in /  1015.8 hPa North 5.8 mph /  9.3 km/h 5.8 mph /  9.3 km/h 22 % 0 in /  0.0 mm
18:03 53.2 °F /  11.8 °C 16.3 °F /  -8.7 °C 30 in /  1015.8 hPa WSW 4.9 mph /  7.9 km/h 4.9 mph /  7.9 km/h 23 % 0 in /  0.0 mm
18:08 52.9 °F /  11.6 °C 16 °F /  -8.9 °C 30 in /  1015.8 hPa WSW 4.6 mph /  7.4 km/h 4.6 mph /  7.4 km/h 23 % 0 in /  0.0 mm
18:13 52.7 °F /  11.5 °C 16 °F /  -8.9 °C 30 in /  1015.8 hPa WNW 3.8 mph /  6.1 km/h 3.8 mph /  6.1 km/h 23 % 0 in /  0.0 mm
18:18 52.5 °F /  11.4 °C 15.6 °F /  -9.1 °C 30 in /  1015.8 hPa SW 8.1 mph /  13.0 km/h 8.1 mph /  13.0 km/h 23 % 0 in /  0.0 mm
18:20 46.6 °F /  8.1 °C 12.6 °F /  -10.8 °C 30 in /  1014.8 hPa West 3 mph /  4.8 km/h 3 mph /  4.8 km/h 25 % 0 in /  0.0 mm
18:23 52.3 °F /  11.3 °C 15.6 °F /  -9.1 °C 30 in /  1015.8 hPa West 5.8 mph /  9.3 km/h 5.8 mph /  9.3 km/h 23 % 0 in /  0.0 mm
18:28 52.3 °F /  11.3 °C 15.6 °F /  -9.1 °C 30 in /  1015.8 hPa West 4.7 mph /  7.6 km/h 4.7 mph /  7.6 km/h 23 % 0 in /  0.0 mm
18:30 46.2 °F /  7.9 °C 13.3 °F /  -10.4 °C 30 in /  1014.8 hPa West 6 mph /  9.7 km/h 6 mph /  9.7 km/h 26 % 0 in /  0.0 mm
18:33 52.2 °F /  11.2 °C 15.4 °F /  -9.2 °C 30 in /  1015.8 hPa West 6.9 mph /  11.1 km/h 6.9 mph /  11.1 km/h 23 % 0 in /  0.0 mm
18:38 52 °F /  11.1 °C 15.3 °F /  -9.3 °C 30 in /  1015.8 hPa WSW 5.8 mph /  9.3 km/h 5.8 mph /  9.3 km/h 23 % 0 in /  0.0 mm
18:40 45.7 °F /  7.6 °C 12.7 °F /  -10.7 °C 30 in /  1014.8 hPa West 3 mph /  4.8 km/h 4 mph /  6.4 km/h 26 % 0 in /  0.0 mm
18:43 51.8 °F /  11.0 °C 15.1 °F /  -9.4 °C 30 in /  1015.8 hPa WNW 3.5 mph /  5.6 km/h 3.5 mph /  5.6 km/h 23 % 0 in /  0.0 mm
18:48 51.6 °F /  10.9 °C 15.1 °F /  -9.4 °C 30 in /  1015.8 hPa WNW 3.5 mph /  5.6 km/h 3.5 mph /  5.6 km/h 23 % 0 in /  0.0 mm
18:50 45.7 °F /  7.6 °C 12.7 °F /  -10.7 °C 30 in /  1014.8 hPa WSW 3 mph /  4.8 km/h 8 mph /  12.9 km/h 26 % 0 in /  0.0 mm
18:53 51.4 °F /  10.8 °C 14.7 °F /  -9.6 °C 30 in /  1015.8 hPa WNW 5.8 mph /  9.3 km/h 5.8 mph /  9.3 km/h 23 % 0 in /  0.0 mm
18:58 51.3 °F /  10.7 °C 14.7 °F /  -9.6 °C 30 in /  1015.8 hPa West 5.8 mph /  9.3 km/h 5.8 mph /  9.3 km/h 23 % 0 in /  0.0 mm
19:03 51.1 °F /  10.6 °C 14.5 °F /  -9.7 °C 30 in /  1015.8 hPa SW 3.5 mph /  5.6 km/h 3.5 mph /  5.6 km/h 23 % 0 in /  0.0 mm
19:08 50.9 °F /  10.5 °C 14.4 °F /  -9.8 °C 30 in /  1015.8 hPa West 3.5 mph /  5.6 km/h 3.5 mph /  5.6 km/h 23 % 0 in /  0.0 mm
19:10 45 °F /  7.2 °C 12.9 °F /  -10.6 °C 30 in /  1014.8 hPa WSW 3 mph /  4.8 km/h 4 mph /  6.4 km/h 27 % 0 in /  0.0 mm
19:13 50.7 °F /  10.4 °C 14.2 °F /  -9.9 °C 30 in /  1015.8 hPa West 4.6 mph /  7.4 km/h 4.6 mph /  7.4 km/h 23 % 0 in /  0.0 mm
19:18 50.9 °F /  10.5 °C 14.4 °F /  -9.8 °C 30 in /  1015.8 hPa WNW 3.1 mph /  5.0 km/h 3.1 mph /  5.0 km/h 23 % 0 in /  0.0 mm
19:20 44.2 °F /  6.8 °C 12.4 °F /  -10.9 °C 30 in /  1014.8 hPa WSW 2 mph /  3.2 km/h 4 mph /  6.4 km/h 27 % 0 in /  0.0 mm
19:23 51.1 °F /  10.6 °C 14.5 °F /  -9.7 °C 30 in /  1015.8 hPa WSW 3.5 mph /  5.6 km/h 3.5 mph /  5.6 km/h 23 % 0 in /  0.0 mm
19:28 50.5 °F /  10.3 °C 14.2 °F /  -9.9 °C 30 in /  1015.8 hPa WSW 2.3 mph /  3.7 km/h 2.3 mph /  3.7 km/h 23 % 0 in /  0.0 mm
19:30 44.1 °F /  6.7 °C 12.9 °F /  -10.6 °C 30 in /  1015.8 hPa WSW 2 mph /  3.2 km/h 4 mph /  6.4 km/h 28 % 0 in /  0.0 mm
19:33 50.4 °F /  10.2 °C 13.8 °F /  -10.1 °C 30 in /  1015.8 hPa West 3.8 mph /  6.1 km/h 3.8 mph /  6.1 km/h 23 % 0 in /  0.0 mm
19:38 50.4 °F /  10.2 °C 13.8 °F /  -10.1 °C 30 in /  1015.8 hPa WSW 5.8 mph /  9.3 km/h 5.8 mph /  9.3 km/h 23 % 0 in /  0.0 mm
19:40 44.1 °F /  6.7 °C 12.9 °F /  -10.6 °C 30 in /  1015.8 hPa WSW 1 mph /  1.6 km/h 3 mph /  4.8 km/h 28 % 0 in /  0.0 mm
19:43 50.2 °F /  10.1 °C 13.6 °F /  -10.2 °C 30 in /  1015.8 hPa WSW 4.6 mph /  7.4 km/h 4.6 mph /  7.4 km/h 23 % 0 in /  0.0 mm
19:48 49.8 °F /  9.9 °C 13.5 °F /  -10.3 °C 30 in /  1015.8 hPa West 2.3 mph /  3.7 km/h 2.3 mph /  3.7 km/h 23 % 0 in /  0.0 mm
19:50 44.4 °F /  6.9 °C 12.6 °F /  -10.8 °C 30 in /  1015.8 hPa WSW 2 mph /  3.2 km/h 2 mph /  3.2 km/h 27 % 0 in /  0.0 mm
19:53 49.8 °F /  9.9 °C 13.5 °F /  -10.3 °C 30 in /  1015.8 hPa SW 2.3 mph /  3.7 km/h 2.3 mph /  3.7 km/h 23 % 0 in /  0.0 mm
19:58 49.6 °F /  9.8 °C 13.3 °F /  -10.4 °C 30 in /  1015.8 hPa West 3.5 mph /  5.6 km/h 3.5 mph /  5.6 km/h 23 % 0 in /  0.0 mm
19:59 49.6 °F /  9.8 °C 13.3 °F /  -10.4 °C 30 in /  1015.8 hPa West 3.5 mph /  5.6 km/h 3.5 mph /  5.6 km/h 23 % 0 in /  0.0 mm
20:00 43.7 °F /  6.5 °C 12.7 °F /  -10.7 °C 30 in /  1015.8 hPa Calm   3 mph /  4.8 km/h 28 % 0 in /  0.0 mm
20:04 49.8 °F /  9.9 °C 13.5 °F /  -10.3 °C 30 in /  1014.8 hPa WSW 3.5 mph /  5.6 km/h 3.5 mph /  5.6 km/h 23 % 0 in /  0.0 mm
20:09 50 °F /  10.0 °C 13.6 °F /  -10.2 °C 30 in /  1014.8 hPa West 4.3 mph /  6.9 km/h 4.3 mph /  6.9 km/h 23 % 0 in /  0.0 mm
20:10 43.3 °F /  6.3 °C 12.4 °F /  -10.9 °C 30 in /  1015.8 hPa SW 3 mph /  4.8 km/h 3 mph /  4.8 km/h 28 % 0 in /  0.0 mm
20:14 50 °F /  10.0 °C 13.6 °F /  -10.2 °C 30 in /  1014.8 hPa WSW 2.3 mph /  3.7 km/h 2.3 mph /  3.7 km/h 23 % 0 in /  0.0 mm
20:19 49.8 °F /  9.9 °C 13.5 °F /  -10.3 °C 30 in /  1015.8 hPa WNW 2.2 mph /  3.5 km/h 2.2 mph /  3.5 km/h 23 % 0 in /  0.0 mm
20:20 42.8 °F /  6.0 °C 11.8 °F /  -11.2 °C 30 in /  1015.8 hPa SW 3 mph /  4.8 km/h 3 mph /  4.8 km/h 28 % 0 in /  0.0 mm
20:24 49.8 °F /  9.9 °C 13.5 °F /  -10.3 °C 30 in /  1015.8 hPa ENE 2.3 mph /  3.7 km/h 2.3 mph /  3.7 km/h 23 % 0 in /  0.0 mm
20:29 49.8 °F /  9.9 °C 13.5 °F /  -10.3 °C 30 in /  1015.8 hPa NNE 5.8 mph /  9.3 km/h 5.8 mph /  9.3 km/h 23 % 0 in /  0.0 mm
20:30 42.8 °F /  6.0 °C 12.7 °F /  -10.7 °C 30 in /  1015.8 hPa WSW 2 mph /  3.2 km/h 3 mph /  4.8 km/h 29 % 0 in /  0.0 mm
20:34 49.6 °F /  9.8 °C 13.3 °F /  -10.4 °C 30 in /  1014.8 hPa NNW 4.6 mph /  7.4 km/h 4.6 mph /  7.4 km/h 23 % 0 in /  0.0 mm
20:39 49.8 °F /  9.9 °C 13.5 °F /  -10.3 °C 30 in /  1014.8 hPa SW 2.3 mph /  3.7 km/h 2.3 mph /  3.7 km/h 23 % 0 in /  0.0 mm
20:40 43.7 °F /  6.5 °C 13.5 °F /  -10.3 °C 30 in /  1015.8 hPa West 1 mph /  1.6 km/h 3 mph /  4.8 km/h 29 % 0 in /  0.0 mm
20:44 49.8 °F /  9.9 °C 13.5 °F /  -10.3 °C 30 in /  1014.8 hPa SW 2.3 mph /  3.7 km/h 2.3 mph /  3.7 km/h 23 % 0 in /  0.0 mm
20:49 49.8 °F /  9.9 °C 14.4 °F /  -9.8 °C 30 in /  1014.8 hPa WSW 3.5 mph /  5.6 km/h 3.5 mph /  5.6 km/h 24 % 0 in /  0.0 mm
20:50 44.2 °F /  6.8 °C 13.8 °F /  -10.1 °C 30 in /  1015.8 hPa WSW 2 mph /  3.2 km/h 3 mph /  4.8 km/h 29 % 0 in /  0.0 mm
20:54 50 °F /  10.0 °C 14.5 °F /  -9.7 °C 30 in /  1014.8 hPa SW 4.6 mph /  7.4 km/h 4.6 mph /  7.4 km/h 24 % 0 in /  0.0 mm
20:59 50.2 °F /  10.1 °C 13.6 °F /  -10.2 °C 30 in /  1014.8 hPa WSW 4.6 mph /  7.4 km/h 4.6 mph /  7.4 km/h 23 % 0 in /  0.0 mm
21:00 44.1 °F /  6.7 °C 13.8 °F /  -10.1 °C 30 in /  1015.8 hPa SW 1 mph /  1.6 km/h 3 mph /  4.8 km/h 29 % 0 in /  0.0 mm
21:04 50.4 °F /  10.2 °C 14.9 °F /  -9.5 °C 30 in /  1014.8 hPa West 6.4 mph /  10.3 km/h 6.4 mph /  10.3 km/h 24 % 0 in /  0.0 mm
21:09 50.4 °F /  10.2 °C 13.8 °F /  -10.1 °C 30 in /  1014.8 hPa West 5.9 mph /  9.5 km/h 5.9 mph /  9.5 km/h 23 % 0 in /  0.0 mm
21:10 42.6 °F /  5.9 °C 12.6 °F /  -10.8 °C 30 in /  1015.8 hPa WSW 2 mph /  3.2 km/h 3 mph /  4.8 km/h 29 % 0 in /  0.0 mm
21:14 50.2 °F /  10.1 °C 13.6 °F /  -10.2 °C 30 in /  1014.8 hPa WSW 5.8 mph /  9.3 km/h 5.8 mph /  9.3 km/h 23 % 0 in /  0.0 mm
21:19 50.2 °F /  10.1 °C 13.6 °F /  -10.2 °C 30 in /  1014.8 hPa SW 6.9 mph /  11.1 km/h 6.9 mph /  11.1 km/h 23 % 0 in /  0.0 mm
21:20 42.8 °F /  6.0 °C 13.5 °F /  -10.3 °C 30 in /  1015.8 hPa WSW 2 mph /  3.2 km/h 3 mph /  4.8 km/h 30 % 0 in /  0.0 mm
21:24 50 °F /  10.0 °C 13.6 °F /  -10.2 °C 30 in /  1014.8 hPa WSW 6.9 mph /  11.1 km/h 6.9 mph /  11.1 km/h 23 % 0 in /  0.0 mm
21:29 50 °F /  10.0 °C 13.6 °F /  -10.2 °C 30 in /  1014.8 hPa SW 5.8 mph /  9.3 km/h 5.8 mph /  9.3 km/h 23 % 0 in /  0.0 mm
21:30 43.2 °F /  6.2 °C 13.8 °F /  -10.1 °C 30 in /  1015.8 hPa WSW 3 mph /  4.8 km/h 6 mph /  9.7 km/h 30 % 0 in /  0.0 mm
21:34 49.8 °F /  9.9 °C 13.5 °F /  -10.3 °C 30 in /  1014.8 hPa WSW 5.8 mph /  9.3 km/h 5.8 mph /  9.3 km/h 23 % 0 in /  0.0 mm
21:39 49.6 °F /  9.8 °C 13.3 °F /  -10.4 °C 30 in /  1014.8 hPa West 5.4 mph /  8.7 km/h 5.4 mph /  8.7 km/h 23 % 0 in /  0.0 mm
21:40 43.3 °F /  6.3 °C 13.8 °F /  -10.1 °C 30 in /  1015.8 hPa WSW 3 mph /  4.8 km/h 6 mph /  9.7 km/h 30 % 0 in /  0.0 mm
21:44 50 °F /  10.0 °C 13.6 °F /  -10.2 °C 30 in /  1014.8 hPa West 8.1 mph /  13.0 km/h 8.1 mph /  13.0 km/h 23 % 0 in /  0.0 mm
21:49 49.6 °F /  9.8 °C 13.3 °F /  -10.4 °C 30 in /  1014.8 hPa WSW 3.5 mph /  5.6 km/h 3.5 mph /  5.6 km/h 23 % 0 in /  0.0 mm
21:50 43.3 °F /  6.3 °C 13.8 °F /  -10.1 °C 30 in /  1015.8 hPa WSW 3 mph /  4.8 km/h 5 mph /  8.0 km/h 30 % 0 in /  0.0 mm
21:54 49.3 °F /  9.6 °C 12.9 °F /  -10.6 °C 30 in /  1014.8 hPa West 3.8 mph /  6.1 km/h 3.8 mph /  6.1 km/h 23 % 0 in /  0.0 mm
21:59 49.1 °F /  9.5 °C 12.7 °F /  -10.7 °C 30 in /  1014.8 hPa WSW 3.5 mph /  5.6 km/h 3.5 mph /  5.6 km/h 23 % 0 in /  0.0 mm
22:00 43.3 °F /  6.3 °C 13.8 °F /  -10.1 °C 30 in /  1015.8 hPa West 2 mph /  3.2 km/h 4 mph /  6.4 km/h 30 % 0 in /  0.0 mm
22:04 48.9 °F /  9.4 °C 12.7 °F /  -10.7 °C 30 in /  1015.8 hPa SSW 4.6 mph /  7.4 km/h 4.6 mph /  7.4 km/h 23 % 0 in /  0.0 mm
22:09 48.7 °F /  9.3 °C 12.6 °F /  -10.8 °C 30 in /  1015.8 hPa WSW 4.6 mph /  7.4 km/h 4.6 mph /  7.4 km/h 23 % 0 in /  0.0 mm
22:10 43.2 °F /  6.2 °C 13.8 °F /  -10.1 °C 30 in /  1014.8 hPa West 3 mph /  4.8 km/h 6 mph /  9.7 km/h 30 % 0 in /  0.0 mm
22:14 48.9 °F /  9.4 °C 12.7 °F /  -10.7 °C 30 in /  1015.8 hPa SW 4.9 mph /  7.9 km/h 4.9 mph /  7.9 km/h 23 % 0 in /  0.0 mm
22:19 48.7 °F /  9.3 °C 12.6 °F /  -10.8 °C 30 in /  1015.8 hPa WSW 4.6 mph /  7.4 km/h 4.6 mph /  7.4 km/h 23 % 0 in /  0.0 mm
22:20 48.7 °F /  9.3 °C 12.6 °F /  -10.8 °C 30 in /  1015.8 hPa WSW 4.6 mph /  7.4 km/h 4.6 mph /  7.4 km/h 23 % 0 in /  0.0 mm
22:25 48.4 °F /  9.1 °C 12.2 °F /  -11.0 °C 30 in /  1015.8 hPa WSW 4.6 mph /  7.4 km/h 4.6 mph /  7.4 km/h 23 % 0 in /  0.0 mm
22:30 48.4 °F /  9.1 °C 12.2 °F /  -11.0 °C 30 in /  1015.8 hPa West 3.5 mph /  5.6 km/h 3.5 mph /  5.6 km/h 23 % 0 in /  0.0 mm
22:35 48.2 °F /  9.0 °C 12 °F /  -11.1 °C 30 in /  1015.8 hPa WSW 3.5 mph /  5.6 km/h 3.5 mph /  5.6 km/h 23 % 0 in /  0.0 mm
22:40 48.2 °F /  9.0 °C 12 °F /  -11.1 °C 30 in /  1015.8 hPa WNW 6.2 mph /  10.0 km/h 6.2 mph /  10.0 km/h 23 % 0 in /  0.0 mm
22:45 48.6 °F /  9.2 °C 12.4 °F /  -10.9 °C 30 in /  1015.8 hPa WSW 6.9 mph /  11.1 km/h 6.9 mph /  11.1 km/h 23 % 0 in /  0.0 mm
22:50 49.1 °F /  9.5 °C 12.7 °F /  -10.7 °C 30 in /  1015.8 hPa WSW 6.9 mph /  11.1 km/h 6.9 mph /  11.1 km/h 23 % 0 in /  0.0 mm
22:55 48.6 °F /  9.2 °C 12.4 °F /  -10.9 °C 30 in /  1015.8 hPa SSW 4.6 mph /  7.4 km/h 4.6 mph /  7.4 km/h 23 % 0 in /  0.0 mm
23:00 48 °F /  8.9 °C 11.8 °F /  -11.2 °C 30 in /  1015.8 hPa WSW 3.5 mph /  5.6 km/h 3.6 mph /  5.8 km/h 23 % 0 in /  0.0 mm
23:05 47.7 °F /  8.7 °C 11.7 °F /  -11.3 °C 30 in /  1015.8 hPa SW 3.5 mph /  5.6 km/h 3.5 mph /  5.6 km/h 23 % 0 in /  0.0 mm
23:10 47.7 °F /  8.7 °C 11.7 °F /  -11.3 °C 30 in /  1015.8 hPa WSW 3.5 mph /  5.6 km/h 3.5 mph /  5.6 km/h 23 % 0 in /  0.0 mm
23:15 47.7 °F /  8.7 °C 12.6 °F /  -10.8 °C 30 in /  1015.8 hPa WSW 4.6 mph /  7.4 km/h 4.6 mph /  7.4 km/h 24 % 0 in /  0.0 mm
23:20 47.5 °F /  8.6 °C 12.4 °F /  -10.9 °C 30 in /  1015.8 hPa WSW 3 mph /  4.8 km/h 6 mph /  9.7 km/h 24 % 0 in /  0.0 mm
23:25 47.7 °F /  8.7 °C 12.6 °F /  -10.8 °C 30 in /  1015.8 hPa WSW 4.6 mph /  7.4 km/h 4.9 mph /  7.9 km/h 24 % 0 in /  0.0 mm
23:30 47.8 °F /  8.8 °C 12.7 °F /  -10.7 °C 30 in /  1015.8 hPa WSW 3.6 mph /  5.8 km/h 3.6 mph /  5.8 km/h 24 % 0 in /  0.0 mm
23:35 47.5 °F /  8.6 °C 12.4 °F /  -10.9 °C 30 in /  1015.8 hPa WSW 3 mph /  4.8 km/h 6 mph /  9.7 km/h 24 % 0 in /  0.0 mm
23:40 47.1 °F /  8.4 °C 12 °F /  -11.1 °C 30 in /  1015.8 hPa WSW 2 mph /  3.2 km/h 3 mph /  4.8 km/h 24 % 0 in /  0.0 mm
23:45 46.8 °F /  8.2 °C 12.7 °F /  -10.7 °C 30 in /  1015.8 hPa SW 2 mph /  3.2 km/h 6 mph /  9.7 km/h 25 % 0 in /  0.0 mm
23:50 46.6 °F /  8.1 °C 12.6 °F /  -10.8 °C 30 in /  1015.8 hPa West 5.8 mph /  9.3 km/h 5.8 mph /  9.3 km/h 25 % 0 in /  0.0 mm
23:55 46.6 °F /  8.1 °C 12.6 °F /  -10.8 °C 30 in /  1015.8 hPa SW 4.6 mph /  7.4 km/h 4.6 mph /  7.4 km/h 25 % 0 in /  0.0 mm
Meteo Sesrovires
Elogis d' Weather Underground - 3.5 mb

Guio original per  Jim McMurry - jmcmurry@mwt.net Adaptat per a la plantilla per  Wim van der Kuil - Leuven-Template.eu

Trobareu la nostra informacio del temps tambe a:

Weather Underground

AWEKAS